Tuesday, June 30, 2015, 8:14 PM EDT

KRIC, Richmond International Airport

Location: Sandston, VA, United States Lat: 37.517
Local Time: 8:14 PM EDT ( 0:14 GMT) Lon: -77.317
Time Zone: US/Eastern Elev: 167 ft

Show me the last for .
Show Decoded

2015-06-30 19:54 METAR KRIC 302354Z 19005KT 10SM FEW050 SCT200 BKN300 28/22 A2982 RMK AO2 SLP103
                 T02780217 10322 20278 55001 =
2015-06-30 18:54 METAR KRIC 302254Z 20006KT 10SM FEW050 BKN200 30/21 A2982 RMK AO2 SLP101
                 T03000211 =
2015-06-30 17:54 METAR KRIC 302154Z 21014KT 10SM FEW050 BKN250 31/21 A2983 =
2015-06-30 16:54 METAR KRIC 302054Z 19011KT 10SM FEW050 SCT100 SCT250 31/21 A2983 RMK AO2 TSE10
                 SLP102 CB DSNT E AND SE T03110206 58019 =
2015-06-30 16:16 METAR KRIC 302016Z 19008KT 10SM FEW050CB SCT100 SCT250 30/20 A2983 RMK AO2 TSE10
                 CB E MOV NE =
2015-06-30 15:54 METAR KRIC 301954Z 18011KT 10SM TS SCT050CB SCT100 SCT250 29/19 A2985 RMK AO2
                 TSB23 SLP111 OCNL LTGIC E TS E MOV NE T02940194 =
2015-06-30 15:25 METAR KRIC 301925Z 23010KT 10SM TS SCT050CB SCT100 BKN250 31/20 A2986 RMK AO2
                 TSB23 OCNL LTGIC SE TS SE MOV E =
2015-06-30 14:54 METAR KRIC 301854Z 21013KT 10SM SCT050TCU SCT100 BKN250 31/19 A2987 RMK AO2
                 SLP116 TCU ALQDS T03060194 =
2015-06-30 13:54 METAR KRIC 301754Z 22011KT 10SM SCT047 BKN250 32/20 A2988 RMK AO2 SLP121
                 T03170200 10322 20233 57013 =
2015-06-30 12:54 METAR KRIC 301654Z 19009KT 10SM FEW045 SCT250 31/20 A2990 RMK AO2 SLP126
                 T03110200 =
2015-06-30 11:54 METAR KRIC 301554Z 19010KT 10SM FEW050 SCT250 30/19 A2991 RMK AO2 SLP129
                 T03000194 =
2015-06-30 10:54 METAR KRIC 301454Z 17010KT 10SM FEW100 BKN250 29/19 A2992 RMK AO2 SLP134
                 T02940194 58004 =
2015-06-30 09:54 METAR KRIC 301354Z 15007KT 10SM FEW100 SCT250 28/21 A2992 =
2015-06-30 08:54 METAR KRIC 301254Z 17007KT 10SM FEW050 SCT120 SCT300 26/20 A2993 RMK AO2 SLP140
                 T02560200 =
2015-06-30 07:54 METAR KRIC 301154Z 15006KT 10SM FEW050 SCT120 SCT300 23/21 A2993 =
2015-06-30 06:54 METAR KRIC 301054Z 12004KT 10SM FEW110 SCT300 22/20 A2993 RMK AO2 SLP138
                 T02170200 =
2015-06-30 05:54 METAR KRIC 300954Z 13004KT 10SM FEW110 SCT300 21/19 A2992 RMK AO2 SLP134
                 T02060194 =
2015-06-30 04:54 METAR KRIC 300854Z 16004KT 10SM FEW110 22/19 A2991 RMK AO2 SLP132 T02170194
                 55008 =
2015-06-30 03:54 METAR KRIC 300754Z 15004KT 10SM FEW120 21/19 A2991 =
2015-06-30 02:54 METAR KRIC 300654Z 14005KT 10SM FEW120 21/19 A2991 RMK AO2 SLP132 T02110194 =
2015-06-30 01:54 METAR KRIC 300554Z 14006KT 10SM FEW120 22/19 A2993 RMK AO2 SLP140 T02170194
                 10267 20211 58007 =
2015-06-30 00:54 METAR KRIC 300454Z 14005KT 10SM FEW120 SCT300 22/19 A2995 RMK AO2 SLP144
                 T02170189 402890150 =
2015-06-29 23:54 METAR KRIC 300354Z 13006KT 10SM FEW120 SCT300 22/18 A2995 RMK AO2 SLP144
                 T02170183 =
2015-06-29 22:54 METAR KRIC 300254Z 14007KT 10SM BKN120 BKN300 23/18 A2995 RMK AO2 SLP147
                 T02330183 50005 =
2015-06-29 21:54 METAR KRIC 300154Z 13007KT 10SM FEW150 SCT300 23/18 A2996 RMK AO2 SLP149
                 T02280183 =
2015-06-29 20:54 METAR KRIC 300054Z 13004KT 10SM SCT150 SCT300 24/18 A2995 RMK AO2 SLP144
                 T02390178 =

Support USWX by starting your Amazon purchase here.